YM Kaohsiung — MCGF6 — position and weather

sailwx.info

Track history (hours):
 
Tides and Currents Weather Stations Pressure Air Temp Water Temp Dewpoint Dewpoint Depression Visibility Wind Speed Wind Dir Waves Ship Positions

YM Kaohsiung

Last reported at 2014-Oct-26 04:14 UTC. Time now 2014-Oct-26 05:20 UTC.
Position N 23°34' E 118°10'.

Length 260 m; draft 10.1 m.

Type: Cargo ship. MMSI: 235767000.

Date/timePositionNaut miles runAvg speedWind from/ knotsBaromVisibWave heightAir tempDewpointWater temp
2014-Oct-26 04:14N 23°34' E 118°10'1213.9
2014-Oct-26 03:24N 23°43' E 118°18'1214.5
2014-Oct-26 02:33N 23°52' E 118°27'1312.8
2014-Oct-26 01:32N 24°00' E 118°38'1913.4
2014-Oct-26 00:09N 24°11' E 118°54'1014.1
2014-Oct-25 23:28N 24°17' E 119°02'1614.4
2014-Oct-25 22:23N 24°28' E 119°15'1714.2
2014-Oct-25 21:11N 24°39' E 119°29'914.1
2014-Oct-25 20:33N 24°45' E 119°36'1713.9
2014-Oct-25 19:21N 24°55' E 119°51'1313.9
2014-Oct-25 18:25N 25°04' E 120°02'  
Track history (hours):
 
Tides and Currents Weather Stations Pressure Air Temp Water Temp Dewpoint Dewpoint Depression Visibility Wind Speed Wind Dir Waves Ship Positions

YM Kaohsiung

Last reported at 2014-Oct-26 04:14 UTC. Time now 2014-Oct-26 05:20 UTC.
Position N 23°34' E 118°10'.

Length 260 m; draft 10.1 m.

Type: Cargo ship. MMSI: 235767000.

Date/timePositionNaut miles runAvg speedWind from/ knotsBaromVisibWave heightAir tempDewpointWater temp
2014-Oct-26 04:14N 23°34' E 118°10'1213.9
2014-Oct-26 03:24N 23°43' E 118°18'1214.5
2014-Oct-26 02:33N 23°52' E 118°27'1312.8
2014-Oct-26 01:32N 24°00' E 118°38'1913.4
2014-Oct-26 00:09N 24°11' E 118°54'1014.1
2014-Oct-25 23:28N 24°17' E 119°02'1614.4
2014-Oct-25 22:23N 24°28' E 119°15'1714.2
2014-Oct-25 21:11N 24°39' E 119°29'914.1
2014-Oct-25 20:33N 24°45' E 119°36'1713.9
2014-Oct-25 19:21N 24°55' E 119°51'1313.9
2014-Oct-25 18:25N 25°04' E 120°02'  

Dump ship's entire track history